createdAt,value
2023-04-24T00:01:02.202Z,11.00
2023-04-24T00:03:34.806Z,11.10
2023-04-24T00:06:09.267Z,11.10
2023-04-24T00:08:41.381Z,11.20
2023-04-24T00:11:13.492Z,11.20
2023-04-24T00:13:45.672Z,11.30
2023-04-24T00:16:17.718Z,11.30
2023-04-24T00:18:50.236Z,11.30
2023-04-24T00:21:26.782Z,11.30
2023-04-24T00:23:59.164Z,11.30
2023-04-24T00:26:31.647Z,11.20
2023-04-24T00:29:03.795Z,11.30
2023-04-24T00:31:36.115Z,11.40
2023-04-24T00:34:08.806Z,11.40
2023-04-24T00:36:41.389Z,11.40
2023-04-24T00:39:13.545Z,11.40
2023-04-24T00:41:46.778Z,11.40
2023-04-24T00:44:20.455Z,11.40
2023-04-24T00:46:55.570Z,11.40
2023-04-24T00:49:28.264Z,11.40
2023-04-24T00:52:00.692Z,11.40
2023-04-24T00:54:32.924Z,11.40
2023-04-24T00:57:05.360Z,11.40
2023-04-24T00:59:37.848Z,11.40
2023-04-24T01:02:12.318Z,11.50
2023-04-24T01:04:44.804Z,11.40
2023-04-24T01:07:17.267Z,11.40
2023-04-24T01:09:52.374Z,11.40
2023-04-24T01:12:24.732Z,11.40
2023-04-24T01:14:57.875Z,11.40
2023-04-24T01:17:30.022Z,11.40
2023-04-24T01:20:06.627Z,11.40
2023-04-24T01:22:39.252Z,11.40
2023-04-24T01:25:12.244Z,11.40
2023-04-24T01:27:44.785Z,11.40
2023-04-24T01:30:17.694Z,11.40
2023-04-24T01:32:49.990Z,11.40
2023-04-24T01:39:34.494Z,11.30
2023-04-24T01:42:08.032Z,11.30
2023-04-24T01:44:40.966Z,11.20
2023-04-24T01:47:14.564Z,11.20
2023-04-24T01:49:48.842Z,11.20
2023-04-24T01:52:22.668Z,11.20
2023-04-24T01:54:56.771Z,11.10
2023-04-24T01:57:32.603Z,11.10
2023-04-24T02:00:07.459Z,11.20
2023-04-24T02:02:46.507Z,11.10
2023-04-24T02:05:20.795Z,11.10
2023-04-24T02:08:16.147Z,11.10
2023-04-24T02:10:48.215Z,11.00
2023-04-24T02:13:20.848Z,11.00
2023-04-24T02:15:52.936Z,11.00
2023-04-24T02:18:25.388Z,11.00
2023-04-24T02:20:57.505Z,11.00
2023-04-24T02:23:29.823Z,11.00
2023-04-24T02:26:02.221Z,10.90
2023-04-24T02:28:34.705Z,11.00
2023-04-24T02:31:07.391Z,11.00
2023-04-24T02:33:39.644Z,11.00
2023-04-24T02:36:12.048Z,11.00
2023-04-24T02:38:45.068Z,11.00
2023-04-24T02:41:17.376Z,11.10
2023-04-24T02:43:49.496Z,11.10
2023-04-24T02:46:21.580Z,11.10
2023-04-24T02:48:53.851Z,11.10
2023-04-24T02:51:26.354Z,11.10
2023-04-24T02:53:58.715Z,11.10
2023-04-24T02:56:30.799Z,11.10
2023-04-24T02:59:02.930Z,11.10
2023-04-24T03:01:35.341Z,11.10
2023-04-24T03:04:07.992Z,11.10
2023-04-24T03:06:40.268Z,11.00
2023-04-24T03:09:12.351Z,11.00
2023-04-24T03:11:44.562Z,10.90
2023-04-24T03:14:17.100Z,10.90
2023-04-24T03:16:49.286Z,10.90
2023-04-24T03:19:22.675Z,10.90
2023-04-24T03:21:54.723Z,10.90
2023-04-24T03:24:29.021Z,10.80
2023-04-24T03:27:01.258Z,10.80
2023-04-24T03:29:33.475Z,10.70
2023-04-24T03:32:05.564Z,10.70
2023-04-24T03:34:37.761Z,10.60
2023-04-24T03:37:09.811Z,10.60
2023-04-24T03:39:42.018Z,10.60
2023-04-24T03:42:14.852Z,10.60
2023-04-24T03:44:47.145Z,10.60
2023-04-24T03:47:19.245Z,10.50
2023-04-24T03:49:51.478Z,10.40
2023-04-24T03:52:24.116Z,10.40
2023-04-24T03:54:56.628Z,10.40
2023-04-24T03:57:28.778Z,10.40
2023-04-24T04:00:01.051Z,10.40
2023-04-24T04:02:34.059Z,10.40
2023-04-24T04:05:06.349Z,10.30
2023-04-24T04:07:39.964Z,10.30
2023-04-24T04:10:50.016Z,10.30
2023-04-24T04:13:22.045Z,10.30
2023-04-24T04:15:54.253Z,10.30
2023-04-24T04:18:26.712Z,10.40
2023-04-24T04:20:58.684Z,10.40
2023-04-24T04:23:33.918Z,10.50
2023-04-24T04:26:06.125Z,10.50
2023-04-24T04:28:40.103Z,10.50
2023-04-24T04:31:12.732Z,10.50
2023-04-24T04:33:44.874Z,10.40
2023-04-24T04:36:18.770Z,10.20
2023-04-24T04:38:51.050Z,10.20
2023-04-24T04:41:24.074Z,10.20
2023-04-24T04:43:59.913Z,10.20
2023-04-24T04:46:38.380Z,10.10
2023-04-24T04:49:11.914Z,10.10
2023-04-24T04:51:44.939Z,10.10
2023-04-24T04:54:17.699Z,10.00
2023-04-24T04:56:51.617Z,10.00
2023-04-24T04:59:24.048Z,10.00
2023-04-24T05:01:57.833Z,9.90
2023-04-24T05:04:30.373Z,9.90
2023-04-24T05:07:02.998Z,9.90
2023-04-24T05:09:35.218Z,9.80
2023-04-24T05:12:08.562Z,9.80
2023-04-24T05:14:40.633Z,9.80
2023-04-24T05:17:22.066Z,9.70
2023-04-24T05:19:54.115Z,9.70
2023-04-24T05:22:26.514Z,9.70
2023-04-24T05:24:58.758Z,9.70
2023-04-24T05:27:30.938Z,9.70
2023-04-24T05:30:03.126Z,9.70
2023-04-24T05:32:36.197Z,9.70
2023-04-24T05:35:08.808Z,9.70
2023-04-24T05:37:40.824Z,9.70
2023-04-24T05:40:12.916Z,9.80
2023-04-24T05:42:45.011Z,9.70
2023-04-24T05:45:17.827Z,9.70
2023-04-24T05:47:51.907Z,9.70
2023-04-24T05:50:24.571Z,9.80
2023-04-24T05:52:59.009Z,9.60
2023-04-24T05:55:32.704Z,9.60
2023-04-24T05:58:04.964Z,9.70
2023-04-24T06:00:37.676Z,9.80
2023-04-24T06:03:11.899Z,9.80
2023-04-24T06:05:44.137Z,9.90
2023-04-24T06:08:16.515Z,9.90
2023-04-24T06:10:48.615Z,9.90
2023-04-24T06:13:20.699Z,9.90
2023-04-24T06:15:53.685Z,9.90
2023-04-24T06:18:25.905Z,10.00
2023-04-24T06:20:58.053Z,10.00
2023-04-24T06:23:30.513Z,10.40
2023-04-24T06:26:04.526Z,11.10
2023-04-24T06:28:36.989Z,11.80
2023-04-24T06:31:09.141Z,12.00
2023-04-24T06:33:41.559Z,12.20
2023-04-24T06:36:14.779Z,12.20
2023-04-24T06:38:47.734Z,12.10
2023-04-24T06:41:20.094Z,12.00
2023-04-24T06:43:52.094Z,12.00
2023-04-24T06:46:27.091Z,12.00
2023-04-24T06:49:17.011Z,12.40
2023-04-24T06:51:49.244Z,12.80
2023-04-24T06:54:21.588Z,13.80
2023-04-24T06:56:54.027Z,14.90
2023-04-24T06:59:26.890Z,15.30
2023-04-24T07:02:00.078Z,14.80
2023-04-24T07:04:32.877Z,14.70
2023-04-24T07:07:06.688Z,15.00
2023-04-24T07:09:42.223Z,15.40
2023-04-24T07:12:14.792Z,16.00
2023-04-24T07:14:49.119Z,15.90
2023-04-24T07:17:22.296Z,15.30
2023-04-24T07:19:54.730Z,14.60
2023-04-24T07:22:26.986Z,13.80
2023-04-24T07:24:59.757Z,13.20
2023-04-24T07:27:32.419Z,12.90
2023-04-24T07:30:06.476Z,12.50
2023-04-24T07:32:39.398Z,12.30
2023-04-24T07:35:13.919Z,12.40
2023-04-24T07:37:47.055Z,12.60
2023-04-24T07:40:19.811Z,12.60
2023-04-24T07:42:52.468Z,12.70
2023-04-24T07:45:27.062Z,12.70
2023-04-24T07:48:00.158Z,12.80
2023-04-24T07:50:33.023Z,12.80
2023-04-24T07:53:05.715Z,12.70
2023-04-24T07:55:43.050Z,12.70
2023-04-24T07:58:15.469Z,13.20
2023-04-24T08:00:48.018Z,13.50
2023-04-24T08:03:21.183Z,13.60
2023-04-24T08:05:54.006Z,13.70
2023-04-24T08:08:26.755Z,13.70
2023-04-24T08:10:59.171Z,14.00
2023-04-24T08:13:31.646Z,14.30
2023-04-24T08:16:03.951Z,14.50
2023-04-24T08:18:37.077Z,14.40
2023-04-24T08:21:09.194Z,14.20
2023-04-24T08:23:41.366Z,13.80
2023-04-24T08:26:14.230Z,13.60
2023-04-24T08:28:47.139Z,13.30
2023-04-24T08:31:19.473Z,13.10
2023-04-24T08:33:51.763Z,13.10
2023-04-24T08:36:28.245Z,12.90
2023-04-24T08:39:06.934Z,12.90
2023-04-24T08:41:40.224Z,12.90
2023-04-24T08:44:17.259Z,12.90
2023-04-24T08:46:52.411Z,12.80
2023-04-24T08:49:26.912Z,12.60
2023-04-24T08:52:02.322Z,12.50
2023-04-24T08:54:38.197Z,12.40
2023-04-24T08:57:13.047Z,12.40
2023-04-24T08:59:46.738Z,12.30
2023-04-24T09:02:19.381Z,12.20
2023-04-24T09:04:54.712Z,12.20
2023-04-24T09:07:31.423Z,12.30
2023-04-24T09:10:06.321Z,12.20
2023-04-24T09:12:39.293Z,12.20
2023-04-24T09:15:12.923Z,12.20
2023-04-24T09:18:03.262Z,12.20
2023-04-24T09:20:37.336Z,12.10
2023-04-24T09:23:30.995Z,11.90
2023-04-24T09:26:07.714Z,11.70
2023-04-24T09:28:41.974Z,11.50
2023-04-24T09:31:19.668Z,11.30
2023-04-24T09:34:01.733Z,11.20
2023-04-24T09:36:38.905Z,11.20
2023-04-24T09:39:18.822Z,11.20
2023-04-24T09:41:53.747Z,11.30
2023-04-24T09:44:28.504Z,11.60
2023-04-24T09:47:01.752Z,12.00
2023-04-24T09:49:34.600Z,12.30
2023-04-24T09:52:18.237Z,12.60
2023-04-24T09:54:55.258Z,12.60
2023-04-24T09:57:27.568Z,12.50
2023-04-24T09:59:59.973Z,12.50
2023-04-24T10:02:33.404Z,12.50
2023-04-24T10:05:06.249Z,12.40
2023-04-24T10:07:42.061Z,12.50
2023-04-24T10:10:15.571Z,12.50
2023-04-24T10:12:48.727Z,12.50
2023-04-24T10:15:23.079Z,12.60
2023-04-24T10:17:56.131Z,12.90
2023-04-24T10:20:36.240Z,13.20
2023-04-24T10:23:11.613Z,13.40
2023-04-24T10:25:44.894Z,13.50
2023-04-24T10:28:18.647Z,13.50
2023-04-24T10:30:52.138Z,13.30
2023-04-24T10:33:27.726Z,13.20
2023-04-24T10:36:02.079Z,13.10
2023-04-24T10:38:36.682Z,12.80
2023-04-24T10:41:20.676Z,12.60
2023-04-24T10:44:11.893Z,12.40
2023-04-24T10:46:51.093Z,12.30
2023-04-24T10:49:31.062Z,12.20
2023-04-24T10:52:08.082Z,12.20
2023-04-24T10:54:47.490Z,12.20
2023-04-24T10:57:23.997Z,12.20
2023-04-24T11:00:20.146Z,12.20
2023-04-24T11:02:54.427Z,12.20
2023-04-24T11:06:01.092Z,12.30
2023-04-24T11:08:45.353Z,12.30
2023-04-24T11:11:19.436Z,12.30
2023-04-24T11:14:00.595Z,12.20
2023-04-24T11:16:41.051Z,12.20
2023-04-24T11:19:20.254Z,12.30
2023-04-24T11:22:05.999Z,12.40
2023-04-24T11:24:49.334Z,12.50
2023-04-24T11:27:23.597Z,12.70
2023-04-24T11:29:57.112Z,12.90
2023-04-24T11:32:35.620Z,13.00
2023-04-24T11:35:19.362Z,13.20
2023-04-24T11:40:31.372Z,13.30
2023-04-24T11:43:07.822Z,13.30
2023-04-24T11:45:49.951Z,13.20
2023-04-24T11:48:23.211Z,12.90
2023-04-24T11:50:56.564Z,12.70
2023-04-24T11:53:28.956Z,12.70
2023-04-24T11:56:06.063Z,12.60
2023-04-24T11:58:40.459Z,12.60
2023-04-24T12:01:12.797Z,12.90
2023-04-24T12:04:00.693Z,13.20
2023-04-24T12:06:33.043Z,13.50
2023-04-24T12:09:17.469Z,14.10
2023-04-24T12:12:00.503Z,14.40
2023-04-24T12:14:33.217Z,14.30
2023-04-24T12:17:29.032Z,14.10
2023-04-24T12:20:08.437Z,13.80
2023-04-24T12:23:02.037Z,13.50
2023-04-24T12:25:34.736Z,13.20
2023-04-24T12:28:12.090Z,13.20
2023-04-24T12:30:49.751Z,13.20
2023-04-24T12:33:24.215Z,13.30
2023-04-24T12:35:56.643Z,13.30
2023-04-24T12:38:31.225Z,13.20
2023-04-24T12:41:08.087Z,13.00
2023-04-24T12:43:53.675Z,12.90
2023-04-24T12:46:27.326Z,13.00
2023-04-24T12:48:59.551Z,13.00
2023-04-24T12:51:31.703Z,13.00
2023-04-24T12:54:04.060Z,12.90
2023-04-24T12:56:40.406Z,12.90
2023-04-24T12:59:12.827Z,12.90
2023-04-24T13:01:45.714Z,12.80
2023-04-24T13:04:18.414Z,12.70
2023-04-24T13:06:51.229Z,12.70
2023-04-24T13:09:24.870Z,12.80
2023-04-24T13:11:59.290Z,13.10
2023-04-24T13:14:33.754Z,13.30
2023-04-24T13:17:06.374Z,13.30
2023-04-24T13:19:42.052Z,13.20
2023-04-24T13:22:15.298Z,13.10
2023-04-24T13:25:40.379Z,13.00
2023-04-24T13:35:23.280Z,12.90
2023-04-24T13:37:58.486Z,12.80
2023-04-24T13:40:31.024Z,12.70
2023-04-24T13:43:04.324Z,12.60
2023-04-24T13:45:36.601Z,12.50
2023-04-24T13:48:10.487Z,12.30
2023-04-24T13:50:44.208Z,12.40
2023-04-24T13:53:17.023Z,12.50
2023-04-24T13:55:49.303Z,12.70
2023-04-24T13:58:21.851Z,12.80
2023-04-24T14:00:54.171Z,13.00
2023-04-24T14:03:27.066Z,13.00
2023-04-24T14:05:59.897Z,12.90
2023-04-24T14:11:35.820Z,12.80
2023-04-24T14:14:09.079Z,13.00
2023-04-24T14:16:41.385Z,13.00
2023-04-24T14:19:13.704Z,13.00
2023-04-24T14:22:05.048Z,13.00
2023-04-24T14:24:50.515Z,13.10
2023-04-24T14:37:24.999Z,13.30
2023-04-24T14:41:07.885Z,13.30
2023-04-24T14:51:52.212Z,12.90
2023-04-24T14:54:27.110Z,12.80
2023-04-24T14:57:00.014Z,12.80
2023-04-24T14:59:33.330Z,12.80
2023-04-24T15:02:15.921Z,12.90
2023-04-24T15:04:49.575Z,13.10
2023-04-24T15:07:22.055Z,13.40
2023-04-24T15:09:54.425Z,13.50
2023-04-24T15:12:27.773Z,13.50
2023-04-24T15:15:01.820Z,13.30
2023-04-24T15:17:34.267Z,13.10
2023-04-24T15:20:07.734Z,13.00
2023-04-24T15:22:41.182Z,12.90
2023-04-24T15:25:13.421Z,12.80
2023-04-24T15:27:46.860Z,12.60
2023-04-24T15:30:19.881Z,12.60
2023-04-24T15:32:52.238Z,12.50
2023-04-24T15:35:24.750Z,12.40
2023-04-24T15:37:57.480Z,12.30
2023-04-24T15:40:29.856Z,12.30
2023-04-24T15:43:02.104Z,12.30
2023-04-24T15:45:35.358Z,12.30
2023-04-24T15:48:07.818Z,12.30
2023-04-24T15:50:40.571Z,12.40
2023-04-24T15:53:12.932Z,12.40
2023-04-24T15:55:45.710Z,12.50
2023-04-24T15:58:21.886Z,12.60
2023-04-24T16:00:55.026Z,12.70
2023-04-24T16:03:27.526Z,12.80
2023-04-24T16:06:00.065Z,12.90
2023-04-24T16:08:32.456Z,13.00
2023-04-24T16:11:06.455Z,13.00
2023-04-24T16:13:39.207Z,13.20
2023-04-24T16:16:11.721Z,13.30
2023-04-24T16:18:44.545Z,13.40
2023-04-24T16:21:17.440Z,13.40
2023-04-24T16:23:50.230Z,13.40
2023-04-24T16:26:22.597Z,13.30
2023-04-24T16:28:56.095Z,13.30
2023-04-24T16:31:28.980Z,13.30
2023-04-24T16:34:01.967Z,13.40
2023-04-24T16:36:36.357Z,13.40
2023-04-24T16:39:10.201Z,13.40
2023-04-24T16:41:43.296Z,13.40
2023-04-24T16:44:16.420Z,13.40
2023-04-24T16:46:50.769Z,13.40
2023-04-24T16:49:31.068Z,13.40
2023-04-24T16:52:03.988Z,13.50
2023-04-24T16:54:36.667Z,13.50
2023-04-24T16:57:08.981Z,13.40
2023-04-24T16:59:41.596Z,13.40
2023-04-24T17:02:14.643Z,13.40
2023-04-24T17:04:48.568Z,13.40
2023-04-24T17:07:41.518Z,13.40
2023-04-24T17:10:14.347Z,13.40
2023-04-24T17:12:47.051Z,13.20
2023-04-24T17:15:19.328Z,13.10
2023-04-24T17:17:52.262Z,13.00
2023-04-24T17:20:25.072Z,13.00
2023-04-24T17:22:59.171Z,12.90
2023-04-24T17:25:31.934Z,12.80
2023-04-24T17:28:04.701Z,12.60
2023-04-24T17:31:00.484Z,12.60
2023-04-24T17:33:33.527Z,12.50
2023-04-24T17:36:07.658Z,12.40
2023-04-24T17:38:40.974Z,12.30
2023-04-24T17:41:16.924Z,12.30
2023-04-24T17:43:49.876Z,12.20
2023-04-24T17:46:22.946Z,12.20
2023-04-24T17:48:56.255Z,12.20
2023-04-24T17:51:29.324Z,12.10
2023-04-24T17:54:01.961Z,12.10
2023-04-24T17:56:35.072Z,12.10
2023-04-24T17:59:07.931Z,12.00
2023-04-24T18:01:40.760Z,11.90
2023-04-24T18:04:13.616Z,11.90
2023-04-24T18:06:46.783Z,11.80
2023-04-24T18:09:21.236Z,11.80
2023-04-24T18:11:54.433Z,11.80
2023-04-24T18:14:28.713Z,11.70
2023-04-24T18:17:01.180Z,11.70
2023-04-24T18:19:35.573Z,11.70
2023-04-24T18:22:08.669Z,11.70
2023-04-24T18:24:41.501Z,11.60
2023-04-24T18:27:15.125Z,11.60
2023-04-24T18:29:48.010Z,11.60
2023-04-24T18:32:22.457Z,11.60
2023-04-24T18:34:55.383Z,11.60
2023-04-24T18:37:28.534Z,11.50
2023-04-24T18:40:01.650Z,11.50
2023-04-24T18:42:36.346Z,11.40
2023-04-24T18:45:11.345Z,11.40
2023-04-24T18:47:50.623Z,11.40
2023-04-24T18:50:23.594Z,11.30
2023-04-24T18:53:00.145Z,11.30
2023-04-24T18:55:35.470Z,11.30
2023-04-24T18:58:08.468Z,11.20
2023-04-24T19:00:41.530Z,11.10
2023-04-24T19:03:14.753Z,11.10
2023-04-24T19:05:48.232Z,11.10
2023-04-24T19:08:21.311Z,11.00
2023-04-24T19:10:54.912Z,10.90
2023-04-24T19:13:28.565Z,10.90
2023-04-24T19:16:01.648Z,10.90
2023-04-24T19:18:34.746Z,10.80
2023-04-24T19:21:08.172Z,10.80
2023-04-24T19:23:42.059Z,10.70
2023-04-24T19:26:17.009Z,10.60
2023-04-24T19:28:51.349Z,10.60
2023-04-24T19:31:26.894Z,10.50
2023-04-24T19:34:01.584Z,10.50
2023-04-24T19:36:35.691Z,10.50
2023-04-24T19:39:09.634Z,10.40
2023-04-24T19:41:43.552Z,10.40
2023-04-24T19:44:17.418Z,10.40
2023-04-24T19:46:51.970Z,10.30
2023-04-24T19:49:25.675Z,10.30
2023-04-24T19:51:59.043Z,10.30
2023-04-24T19:54:32.688Z,10.30
2023-04-24T19:57:05.894Z,10.30
2023-04-24T19:59:38.637Z,10.30
2023-04-24T20:02:15.663Z,10.30
2023-04-24T20:05:08.971Z,10.20
2023-04-24T20:07:42.272Z,10.20
2023-04-24T20:10:15.829Z,10.20
2023-04-24T20:12:48.325Z,10.20
2023-04-24T20:15:21.647Z,10.20
2023-04-24T20:17:54.098Z,10.10
2023-04-24T20:20:26.683Z,10.10
2023-04-24T20:22:59.342Z,10.10
2023-04-24T20:25:32.866Z,10.00
2023-04-24T20:28:06.859Z,9.90
2023-04-24T20:30:41.032Z,9.90
2023-04-24T20:33:13.637Z,9.90
2023-04-24T20:35:46.491Z,9.80
2023-04-24T20:38:19.588Z,9.80
2023-04-24T20:40:58.016Z,9.70
2023-04-24T20:43:31.886Z,9.70
2023-04-24T20:46:04.761Z,9.70
2023-04-24T20:48:39.002Z,9.70
2023-04-24T20:51:11.835Z,9.60
2023-04-24T20:53:45.146Z,9.50
2023-04-24T20:56:18.825Z,9.50
2023-04-24T20:58:55.306Z,9.50
2023-04-24T21:01:30.243Z,9.50
2023-04-24T21:04:02.752Z,9.40
2023-04-24T21:06:35.362Z,9.40
2023-04-24T21:09:08.720Z,9.40
2023-04-24T21:11:41.583Z,9.40
2023-04-24T21:14:14.062Z,9.30
2023-04-24T21:16:46.719Z,9.30
2023-04-24T21:19:18.944Z,9.30
2023-04-24T21:21:51.538Z,9.20
2023-04-24T21:24:23.841Z,9.20
2023-04-24T21:26:56.313Z,9.10
2023-04-24T21:29:28.826Z,9.10
2023-04-24T21:32:00.956Z,9.10
2023-04-24T21:34:33.325Z,9.00
2023-04-24T21:37:05.381Z,9.00
2023-04-24T21:39:37.556Z,9.00
2023-04-24T21:42:10.588Z,8.90
2023-04-24T21:44:42.883Z,8.90
2023-04-24T21:47:14.999Z,8.80
2023-04-24T21:49:47.526Z,8.80
2023-04-24T21:52:20.237Z,8.80
2023-04-24T21:54:52.496Z,8.70
2023-04-24T21:57:24.548Z,8.70
2023-04-24T21:59:56.961Z,8.70
2023-04-24T22:02:29.280Z,8.60
2023-04-24T22:05:03.455Z,8.60
2023-04-24T22:07:36.924Z,8.60
2023-04-24T22:10:10.710Z,8.60
2023-04-24T22:12:44.615Z,8.60
2023-04-24T22:15:16.913Z,8.60
2023-04-24T22:17:49.855Z,8.70
2023-04-24T22:20:24.151Z,8.70
2023-04-24T22:22:56.688Z,8.70
2023-04-24T22:25:28.850Z,8.70
2023-04-24T22:28:01.368Z,8.80
2023-04-24T22:30:53.267Z,8.80
2023-04-24T22:33:25.567Z,8.80
2023-04-24T22:35:57.608Z,8.90
2023-04-24T22:38:33.805Z,8.90
2023-04-24T22:41:08.276Z,8.90
2023-04-24T22:43:40.806Z,8.90
2023-04-24T22:46:13.146Z,8.90
2023-04-24T22:48:45.900Z,8.80
2023-04-24T22:51:20.044Z,8.80
2023-04-24T22:53:52.256Z,8.80
2023-04-24T22:56:26.102Z,8.80
2023-04-24T22:58:58.922Z,8.80
2023-04-24T23:01:31.243Z,8.80
2023-04-24T23:04:03.452Z,8.70
2023-04-24T23:06:35.500Z,8.70
2023-04-24T23:09:08.303Z,8.80
2023-04-24T23:11:40.421Z,8.80
2023-04-24T23:14:12.455Z,8.80
2023-04-24T23:16:46.236Z,8.80
2023-04-24T23:19:18.354Z,8.80
2023-04-24T23:21:50.851Z,8.80
2023-04-24T23:24:23.012Z,8.80
2023-04-24T23:26:55.513Z,8.80
2023-04-24T23:29:27.964Z,8.90
2023-04-24T23:32:01.864Z,8.90
2023-04-24T23:34:34.461Z,8.90
2023-04-24T23:37:10.058Z,8.90
2023-04-24T23:39:42.306Z,8.90
2023-04-24T23:42:14.416Z,8.90
2023-04-24T23:44:46.407Z,8.80
2023-04-24T23:47:18.480Z,8.80
2023-04-24T23:49:50.490Z,8.80
2023-04-24T23:52:22.776Z,8.70
2023-04-24T23:54:54.934Z,8.70
2023-04-24T23:57:27.086Z,8.70
2023-04-24T23:59:59.157Z,8.60
